createdAt,value
2019-04-21T00:03:48.616Z,23.91
2019-04-21T00:09:11.445Z,22.66
2019-04-21T00:14:09.011Z,21.40
2019-04-21T00:19:12.633Z,22.22
2019-04-21T00:24:23.921Z,20.97
2019-04-21T00:29:38.472Z,20.18
2019-04-21T00:34:30.205Z,20.81
2019-04-21T00:40:01.905Z,19.01
2019-04-21T00:50:12.863Z,17.74
2019-04-21T01:00:27.791Z,17.71
2019-04-21T01:05:35.245Z,16.61
2019-04-21T01:10:32.007Z,16.78
2019-04-21T01:20:36.649Z,16.47
2019-04-21T01:25:59.318Z,17.20
2019-04-21T01:31:11.095Z,17.06
2019-04-21T01:36:18.274Z,16.70
2019-04-21T01:41:35.619Z,16.17
2019-04-21T01:46:33.971Z,16.42
2019-04-21T01:51:57.856Z,16.23
2019-04-21T01:56:52.399Z,16.73
2019-04-21T02:02:02.368Z,16.47
2019-04-21T02:07:02.839Z,16.83
2019-04-21T02:12:21.017Z,16.43
2019-04-21T02:17:23.758Z,16.45
2019-04-21T02:22:42.677Z,15.58
2019-04-21T02:27:37.213Z,16.40
2019-04-21T02:33:00.111Z,15.40
2019-04-21T02:38:30.717Z,15.40
2019-04-21T02:43:07.519Z,14.66
2019-04-21T02:48:26.145Z,16.00
2019-04-21T02:53:22.667Z,15.00
2019-04-21T03:03:49.208Z,14.84
2019-04-21T03:08:44.324Z,14.64
2019-04-21T03:14:05.880Z,15.81
2019-04-21T03:19:04.685Z,15.14
2019-04-21T03:44:46.040Z,15.95
2019-04-21T03:54:55.464Z,14.92
2019-04-21T04:00:08.956Z,15.26
2019-04-21T04:05:14.876Z,14.92
2019-04-21T04:10:08.424Z,14.15
2019-04-21T04:15:35.149Z,14.34
2019-04-21T04:20:28.127Z,14.34
2019-04-21T04:30:37.841Z,13.30
2019-04-21T04:35:52.466Z,13.95
2019-04-21T04:41:08.220Z,13.99
2019-04-21T04:45:58.849Z,13.42
2019-04-21T04:51:27.113Z,13.24
2019-04-21T04:56:30.667Z,14.54
2019-04-21T05:01:41.128Z,13.33
2019-04-21T05:11:50.567Z,13.31
2019-04-21T05:16:56.045Z,13.65
2019-04-21T05:27:02.077Z,12.42
2019-04-21T05:32:07.605Z,12.69
2019-04-21T05:37:22.064Z,13.47
2019-04-21T05:42:23.862Z,12.28
2019-04-21T05:47:39.770Z,12.34
2019-04-21T05:52:41.813Z,12.29
2019-04-21T05:57:47.899Z,13.15
2019-04-21T06:03:05.658Z,11.56
2019-04-21T06:08:08.181Z,11.84
2019-04-21T06:13:22.087Z,12.68
2019-04-21T06:18:30.194Z,12.69
2019-04-21T06:23:32.278Z,12.50
2019-04-21T06:28:34.698Z,12.71
2019-04-21T06:44:08.178Z,14.84
2019-04-21T06:49:07.091Z,13.07
2019-04-21T06:54:09.446Z,13.78
2019-04-21T06:59:24.639Z,11.76
2019-04-21T07:04:37.092Z,10.98
2019-04-21T07:09:41.344Z,11.98
2019-04-21T07:14:56.278Z,11.56
2019-04-21T07:20:07.233Z,11.42
2019-04-21T07:24:56.000Z,11.86
2019-04-21T07:30:04.998Z,11.58
2019-04-21T07:40:17.715Z,11.45
2019-04-21T07:45:27.821Z,12.68
2019-04-21T07:50:39.150Z,12.17
2019-04-21T08:06:10.295Z,12.43
2019-04-21T08:21:29.913Z,13.80
2019-04-21T08:36:51.661Z,14.55
2019-04-21T08:41:58.759Z,15.04
2019-04-21T08:47:07.487Z,15.56
2019-04-21T08:52:21.233Z,15.99
2019-04-21T08:57:26.502Z,16.22
2019-04-21T09:02:35.256Z,16.74
2019-04-21T09:07:41.347Z,16.59
2019-04-21T09:12:47.485Z,16.19
2019-04-21T09:17:44.799Z,17.53
2019-04-21T09:23:00.992Z,16.30
2019-04-21T09:28:04.010Z,17.24
2019-04-21T09:33:00.531Z,13.60
2019-04-21T09:38:17.145Z,13.36
2019-04-21T09:43:27.277Z,12.03
2019-04-21T09:48:24.432Z,22.10
2019-04-21T09:53:34.473Z,11.43
2019-04-21T09:58:42.459Z,11.96
2019-04-21T10:03:50.282Z,10.17
2019-04-21T10:08:58.626Z,7.96
2019-04-21T10:14:03.235Z,8.10
2019-04-21T10:19:13.771Z,7.59
2019-04-21T10:24:12.465Z,8.59
2019-04-21T10:29:24.264Z,6.62
2019-04-21T10:34:29.298Z,6.65
2019-04-21T10:39:35.909Z,5.95
2019-04-21T10:44:45.210Z,6.02
2019-04-21T10:49:52.855Z,7.70
2019-04-21T10:55:12.834Z,11.68
2019-04-21T11:00:09.265Z,10.25
2019-04-21T11:05:16.738Z,7.49
2019-04-21T11:10:25.734Z,7.80
2019-04-21T11:15:32.875Z,5.38
2019-04-21T11:20:42.676Z,4.45
2019-04-21T11:25:49.577Z,6.14
2019-04-21T11:30:58.430Z,8.41
2019-04-21T11:36:07.258Z,4.48
2019-04-21T11:41:16.145Z,5.07
2019-04-21T11:46:24.525Z,5.77
2019-04-21T11:51:33.324Z,5.34
2019-04-21T11:56:41.029Z,4.65
2019-04-21T12:01:49.785Z,5.94
2019-04-21T12:06:57.906Z,5.07
2019-04-21T12:12:05.329Z,4.37
2019-04-21T12:17:14.226Z,5.06
2019-04-21T12:22:25.348Z,4.94
2019-04-21T12:27:29.933Z,4.84
2019-04-21T12:32:38.136Z,4.35
2019-04-21T12:37:44.720Z,4.39
2019-04-21T12:42:51.059Z,3.96
2019-04-21T12:48:00.082Z,4.13
2019-04-21T12:53:09.452Z,3.99
2019-04-21T12:58:17.302Z,3.96
2019-04-21T13:03:25.171Z,4.35
2019-04-21T13:08:42.448Z,4.98
2019-04-21T13:13:39.984Z,6.78
2019-04-21T13:18:47.257Z,4.22
2019-04-21T13:23:56.805Z,4.55
2019-04-21T13:29:03.383Z,4.50
2019-04-21T13:34:11.940Z,4.05
2019-04-21T13:39:38.240Z,3.64
2019-04-21T13:44:28.892Z,3.94
2019-04-21T13:49:37.032Z,4.21
2019-04-21T13:54:43.482Z,4.41
2019-04-21T13:59:53.129Z,4.38
2019-04-21T14:05:01.105Z,4.82
2019-04-21T14:10:10.401Z,3.26
2019-04-21T14:15:15.534Z,3.37
2019-04-21T14:20:24.900Z,3.56
2019-04-21T14:25:37.530Z,9.07
2019-04-21T14:30:36.401Z,3.14
2019-04-21T14:35:43.083Z,3.24
2019-04-21T14:40:52.119Z,4.63
2019-04-21T14:46:00.821Z,3.84
2019-04-21T14:51:07.116Z,3.10
2019-04-21T14:56:15.574Z,3.77
2019-04-21T15:01:24.072Z,2.91
2019-04-21T15:06:33.697Z,4.30
2019-04-21T15:11:40.413Z,4.80
2019-04-21T15:16:49.042Z,4.22
2019-04-21T15:21:56.703Z,3.60
2019-04-21T15:27:05.101Z,3.52
2019-04-21T15:32:12.610Z,4.49
2019-04-21T15:37:19.922Z,8.20
2019-04-21T15:42:28.367Z,3.39
2019-04-21T15:47:35.985Z,4.31
2019-04-21T15:52:43.483Z,4.75
2019-04-21T15:57:52.297Z,4.60
2019-04-21T16:03:00.611Z,5.43
2019-04-21T16:08:10.140Z,4.71
2019-04-21T16:13:17.139Z,4.55
2019-04-21T16:18:26.129Z,3.73
2019-04-21T16:23:36.263Z,3.89
2019-04-21T16:28:49.007Z,4.42
2019-04-21T16:33:52.563Z,4.75
2019-04-21T16:38:58.017Z,4.23
2019-04-21T16:43:56.690Z,4.18
2019-04-21T16:49:15.909Z,3.92
2019-04-21T16:54:15.709Z,11.11
2019-04-21T17:05:58.315Z,5.00
2019-04-21T17:09:38.935Z,5.10
2019-04-21T17:19:47.580Z,3.87
2019-04-21T17:24:53.079Z,3.60
2019-04-21T17:30:01.601Z,3.97
2019-04-21T17:35:12.049Z,3.93
2019-04-21T17:40:18.165Z,3.97
2019-04-21T17:45:26.941Z,6.25
2019-04-21T17:50:35.469Z,14.35
2019-04-21T17:55:46.118Z,13.92
2019-04-21T18:01:13.902Z,11.31
2019-04-21T18:06:10.125Z,13.90
2019-04-21T18:11:12.637Z,19.69
2019-04-21T18:16:23.065Z,16.58
2019-04-21T18:21:20.953Z,16.49
2019-04-21T18:26:40.520Z,14.66
2019-04-21T18:31:44.883Z,15.38
2019-04-21T18:36:48.826Z,13.67
2019-04-21T18:42:09.397Z,18.67
2019-04-21T18:47:19.988Z,17.51
2019-04-21T18:52:16.878Z,13.00
2019-04-21T18:57:26.667Z,11.22
2019-04-21T19:02:26.302Z,11.43
2019-04-21T19:07:51.858Z,14.39
2019-04-21T19:13:20.325Z,11.39
2019-04-21T19:23:04.573Z,12.17
2019-04-21T19:28:16.301Z,14.98
2019-04-21T19:33:22.073Z,15.58
2019-04-21T19:38:16.218Z,13.81
2019-04-21T19:43:42.345Z,11.39
2019-04-21T19:48:54.086Z,11.72
2019-04-21T19:53:49.317Z,11.44
2019-04-21T19:58:46.976Z,16.30
2019-04-21T20:03:57.106Z,14.33
2019-04-21T20:09:13.511Z,11.97
2019-04-21T20:14:46.671Z,11.79
2019-04-21T20:19:11.880Z,14.36
2019-04-21T20:24:23.289Z,14.94
2019-04-21T20:29:44.765Z,16.84
2019-04-21T20:34:56.253Z,15.40
2019-04-21T20:39:47.187Z,14.81
2019-04-21T20:45:22.120Z,12.89
2019-04-21T20:50:09.495Z,13.89
2019-04-21T20:55:19.157Z,11.80
2019-04-21T21:00:39.238Z,10.45
2019-04-21T21:05:27.556Z,10.91
2019-04-21T21:10:36.884Z,9.82
2019-04-21T21:15:51.325Z,9.35
2019-04-21T21:20:54.055Z,9.26
2019-04-21T21:26:09.955Z,9.92
2019-04-21T21:31:13.362Z,9.68
2019-04-21T21:36:19.644Z,8.68
2019-04-21T21:41:21.220Z,9.43
2019-04-21T21:46:39.017Z,14.79
2019-04-21T21:56:36.652Z,33.44
2019-04-21T22:01:49.123Z,17.93
2019-04-21T22:06:58.493Z,11.45
2019-04-21T22:12:03.320Z,13.79
2019-04-21T22:17:24.769Z,12.08
2019-04-21T22:22:32.754Z,10.87
2019-04-21T22:27:25.632Z,10.00
2019-04-21T22:32:34.991Z,10.42
2019-04-21T22:37:54.764Z,12.64
2019-04-21T22:43:01.818Z,8.17
2019-04-21T22:48:05.284Z,8.85
2019-04-21T22:53:07.959Z,8.50
2019-04-21T22:58:18.435Z,10.68
2019-04-21T23:03:24.617Z,7.91
2019-04-21T23:08:33.188Z,8.13
2019-04-21T23:13:36.652Z,9.11
2019-04-21T23:18:55.407Z,8.48
2019-04-21T23:24:10.129Z,9.54
2019-04-21T23:29:18.484Z,9.37
2019-04-21T23:34:13.455Z,8.28
2019-04-21T23:39:23.387Z,7.70
2019-04-21T23:44:25.860Z,7.87
2019-04-21T23:49:43.255Z,8.48
2019-04-21T23:54:41.068Z,7.54
2019-04-21T23:59:53.441Z,7.57
